createdAt,value
2016-12-16T07:58:14.636Z,128
2016-12-16T07:58:37.063Z,132
2016-12-16T11:22:10.617Z,364
2016-12-16T11:36:46.264Z,368
2016-12-16T11:45:53.986Z,368
2016-12-16T11:46:54.000Z,372
2016-12-16T11:47:54.025Z,368
2016-12-16T11:48:54.030Z,372
2016-12-16T11:49:54.037Z,368
2016-12-16T11:50:54.053Z,368
2016-12-16T11:51:54.067Z,368
2016-12-16T11:52:54.085Z,368
2016-12-16T11:53:54.094Z,368
2016-12-16T11:54:54.106Z,368
2016-12-16T11:55:54.123Z,368
2016-12-16T11:56:54.139Z,368
2016-12-16T11:57:54.147Z,368
2016-12-16T11:58:54.160Z,368
2016-12-16T11:59:54.177Z,368
2016-12-16T12:00:54.186Z,368
2016-12-16T12:01:54.201Z,368
2016-12-16T12:02:54.212Z,364
2016-12-16T12:03:54.232Z,364
2016-12-16T12:04:54.239Z,364
2016-12-16T12:05:54.252Z,368
2016-12-16T12:06:54.266Z,364
2016-12-16T12:16:47.011Z,356
2016-12-16T14:29:13.904Z,140
2016-12-16T14:30:13.911Z,136
2016-12-16T14:31:13.924Z,132
2016-12-16T14:32:13.939Z,128
2016-12-16T14:33:13.953Z,128
2016-12-16T14:34:13.967Z,124
2016-12-16T14:35:13.987Z,116
2016-12-16T14:36:14.107Z,112
2016-12-16T15:19:09.254Z,8
2016-12-16T15:19:54.354Z,4
2016-12-16T15:20:54.438Z,4
2016-12-16T15:21:54.446Z,4
2016-12-16T15:22:54.455Z,4
2016-12-16T15:23:54.406Z,4
2016-12-16T15:24:54.425Z,0
2016-12-16T15:25:54.436Z,0
2016-12-16T15:26:54.444Z,4
2016-12-16T15:27:54.461Z,0
2016-12-16T15:28:54.470Z,0
2016-12-16T15:29:54.494Z,0
2016-12-16T15:30:54.499Z,0
2016-12-16T15:31:54.530Z,0
2016-12-16T15:32:54.532Z,0
2016-12-16T15:33:54.550Z,0
2016-12-16T15:34:54.555Z,0
2016-12-16T15:35:54.569Z,0
2016-12-16T15:36:54.584Z,0
